createdAt,value
2019-03-19T00:00:22.528Z,98216.00
2019-03-19T00:02:51.883Z,98240.00
2019-03-19T00:05:21.721Z,98232.00
2019-03-19T00:07:51.095Z,98235.00
2019-03-19T00:10:20.476Z,98246.00
2019-03-19T00:12:49.842Z,98244.00
2019-03-19T00:15:20.009Z,98250.00
2019-03-19T00:17:49.349Z,98248.00
2019-03-19T00:20:18.713Z,98252.00
2019-03-19T00:22:48.158Z,98283.00
2019-03-19T00:25:17.526Z,98269.00
2019-03-19T00:27:46.929Z,98269.00
2019-03-19T00:30:19.817Z,98265.00
2019-03-19T00:32:49.208Z,98251.00
2019-03-19T00:35:18.609Z,98252.00
2019-03-19T00:37:48.090Z,98256.00
2019-03-19T00:40:17.508Z,98258.00
2019-03-19T00:42:46.882Z,98267.00
2019-03-19T00:45:16.916Z,98270.00
2019-03-19T00:47:46.282Z,98261.00
2019-03-19T00:50:16.576Z,98271.00
2019-03-19T00:52:45.955Z,98271.00
2019-03-19T00:55:15.458Z,98274.00
2019-03-19T00:57:44.816Z,98286.00
2019-03-19T01:00:18.920Z,98280.00
2019-03-19T01:02:48.427Z,98265.00
2019-03-19T01:05:17.811Z,98264.00
2019-03-19T01:07:47.921Z,98280.00
2019-03-19T01:10:17.901Z,98298.00
2019-03-19T01:12:47.273Z,98281.00
2019-03-19T01:15:36.054Z,98285.00
2019-03-19T01:18:05.484Z,98298.00
2019-03-19T01:20:34.831Z,98286.00
2019-03-19T01:23:04.313Z,98282.00
2019-03-19T01:25:35.161Z,98279.00
2019-03-19T01:28:04.883Z,98287.00
2019-03-19T01:30:34.287Z,98290.00
2019-03-19T01:33:03.807Z,98290.00
2019-03-19T01:35:33.162Z,98298.00
2019-03-19T01:38:03.311Z,98301.00
2019-03-19T01:40:32.686Z,98304.00
2019-03-19T01:43:02.023Z,98307.00
2019-03-19T01:45:31.416Z,98294.00
2019-03-19T01:48:00.800Z,98307.00
2019-03-19T01:50:30.220Z,98294.00
2019-03-19T01:52:59.592Z,98306.00
2019-03-19T02:14:18.097Z,98326.00
2019-03-19T02:16:47.501Z,98326.00
2019-03-19T02:19:16.866Z,98322.00
2019-03-19T02:21:46.274Z,98315.00
2019-03-19T02:24:15.643Z,98320.00
2019-03-19T02:26:45.003Z,98326.00
2019-03-19T02:29:14.383Z,98316.00
2019-03-19T02:31:43.783Z,98329.00
2019-03-19T02:34:13.266Z,98310.00
2019-03-19T02:36:42.637Z,98311.00
2019-03-19T02:39:14.949Z,98303.00
2019-03-19T02:41:44.483Z,98310.00
2019-03-19T02:44:13.866Z,98309.00
2019-03-19T02:46:43.301Z,98306.00
2019-03-19T02:49:12.674Z,98329.00
2019-03-19T02:51:42.082Z,98334.00
2019-03-19T02:54:11.447Z,98340.00
2019-03-19T02:56:40.822Z,98327.00
2019-03-19T02:59:10.601Z,98331.00
2019-03-19T03:01:39.945Z,98350.00
2019-03-19T03:04:09.319Z,98352.00
2019-03-19T03:06:38.698Z,98345.00
2019-03-19T03:09:08.208Z,98352.00
2019-03-19T03:11:37.569Z,98343.00
2019-03-19T03:14:06.940Z,98361.00
2019-03-19T03:16:37.974Z,98353.00
2019-03-19T03:19:07.683Z,98352.00
2019-03-19T03:21:37.495Z,98369.00
2019-03-19T03:24:06.885Z,98380.00
2019-03-19T03:26:46.884Z,98387.00
2019-03-19T03:29:08.256Z,98374.00
2019-03-19T03:31:37.625Z,98381.00
2019-03-19T03:34:06.980Z,98383.00
2019-03-19T03:36:36.350Z,98389.00
2019-03-19T03:39:08.058Z,98393.00
2019-03-19T03:41:39.336Z,98394.00
2019-03-19T03:44:09.396Z,98402.00
2019-03-19T03:46:38.755Z,98398.00
2019-03-19T03:49:08.138Z,98401.00
2019-03-19T03:51:37.599Z,98403.00
2019-03-19T03:54:06.976Z,98389.00
2019-03-19T03:56:36.347Z,98398.00
2019-03-19T03:59:05.791Z,98403.00
2019-03-19T04:01:35.157Z,98409.00
2019-03-19T04:04:04.781Z,98412.00
2019-03-19T04:06:34.202Z,98417.00
2019-03-19T04:09:04.924Z,98419.00
2019-03-19T04:11:34.284Z,98414.00
2019-03-19T04:14:03.718Z,98413.00
2019-03-19T04:16:33.080Z,98424.00
2019-03-19T04:19:02.825Z,98418.00
2019-03-19T04:21:32.211Z,98421.00
2019-03-19T04:24:01.571Z,98419.00
2019-03-19T04:26:30.939Z,98418.00
2019-03-19T04:29:01.473Z,98421.00
2019-03-19T04:31:30.816Z,98442.00
2019-03-19T04:34:00.172Z,98444.00
2019-03-19T04:36:29.573Z,98425.00
2019-03-19T04:38:58.929Z,98430.00
2019-03-19T04:41:28.319Z,98440.00
2019-03-19T04:43:57.698Z,98433.00
2019-03-19T04:46:27.055Z,98440.00
2019-03-19T04:48:56.444Z,98442.00
2019-03-19T04:51:26.332Z,98435.00
2019-03-19T04:53:55.756Z,98424.00
2019-03-19T04:56:25.136Z,98422.00
2019-03-19T04:58:54.571Z,98417.00
2019-03-19T05:01:23.937Z,98425.00
2019-03-19T05:03:53.299Z,98437.00
2019-03-19T05:06:22.717Z,98424.00
2019-03-19T05:08:52.130Z,98432.00
2019-03-19T05:11:21.505Z,98429.00
2019-03-19T05:13:51.396Z,98426.00
2019-03-19T05:16:20.773Z,98443.00
2019-03-19T05:18:50.159Z,98443.00
2019-03-19T05:21:20.156Z,98456.00
2019-03-19T05:23:49.530Z,98451.00
2019-03-19T05:26:21.862Z,98454.00
2019-03-19T05:28:51.263Z,98459.00
2019-03-19T05:31:20.647Z,98452.00
2019-03-19T05:33:50.013Z,98443.00
2019-03-19T05:36:19.852Z,98443.00
2019-03-19T05:38:49.211Z,98460.00
2019-03-19T05:41:18.582Z,98462.00
2019-03-19T05:43:47.950Z,98469.00
2019-03-19T05:46:17.313Z,98476.00
2019-03-19T05:48:46.684Z,98476.00
2019-03-19T05:51:16.107Z,98479.00
2019-03-19T05:53:45.450Z,98473.00
2019-03-19T05:56:14.810Z,98484.00
2019-03-19T05:58:44.212Z,98485.00
2019-03-19T06:01:13.576Z,98480.00
2019-03-19T06:03:42.928Z,98466.00
2019-03-19T06:06:12.336Z,98492.00
2019-03-19T06:08:41.675Z,98472.00
2019-03-19T06:11:11.066Z,98470.00
2019-03-19T06:13:40.421Z,98468.00
2019-03-19T06:16:10.025Z,98477.00
2019-03-19T06:18:39.467Z,98484.00
2019-03-19T06:21:09.767Z,98490.00
2019-03-19T06:23:40.009Z,98490.00
2019-03-19T06:26:09.387Z,98508.00
2019-03-19T06:28:38.790Z,98502.00
2019-03-19T06:31:08.158Z,98495.00
2019-03-19T06:33:37.539Z,98501.00
2019-03-19T06:36:06.940Z,98497.00
2019-03-19T06:38:36.335Z,98516.00
2019-03-19T06:41:05.701Z,98518.00
2019-03-19T06:43:35.160Z,98519.00
2019-03-19T06:46:04.721Z,98529.00
2019-03-19T06:48:34.091Z,98526.00
2019-03-19T06:51:03.477Z,98522.00
2019-03-19T06:53:32.885Z,98530.00
2019-03-19T06:56:02.283Z,98535.00
2019-03-19T06:58:31.664Z,98546.00
2019-03-19T07:01:01.044Z,98534.00
2019-03-19T07:03:30.483Z,98542.00
2019-03-19T07:06:00.170Z,98541.00
2019-03-19T07:08:29.547Z,98549.00
2019-03-19T07:10:58.899Z,98555.00
2019-03-19T07:13:28.287Z,98551.00
2019-03-19T07:15:57.651Z,98559.00
2019-03-19T07:18:27.016Z,98555.00
2019-03-19T07:20:56.398Z,98562.00
2019-03-19T07:23:25.756Z,98560.00
2019-03-19T07:25:55.561Z,98555.00
2019-03-19T07:28:25.593Z,98554.00
2019-03-19T07:30:54.986Z,98562.00
2019-03-19T07:33:24.409Z,98564.00
2019-03-19T07:35:53.968Z,98568.00
2019-03-19T07:38:23.355Z,98570.00
2019-03-19T07:40:52.775Z,98570.00
2019-03-19T07:43:22.152Z,98579.00
2019-03-19T07:45:51.537Z,98569.00
2019-03-19T07:48:20.924Z,98575.00
2019-03-19T07:50:50.458Z,98581.00
2019-03-19T07:53:20.004Z,98574.00
2019-03-19T07:55:49.363Z,98583.00
2019-03-19T07:58:18.748Z,98599.00
2019-03-19T08:00:48.210Z,98581.00
2019-03-19T08:03:17.565Z,98587.00
2019-03-19T08:05:47.526Z,98590.00
2019-03-19T08:08:16.893Z,98584.00
2019-03-19T08:10:46.288Z,98579.00
2019-03-19T08:13:15.958Z,98586.00
2019-03-19T08:15:45.342Z,98583.00
2019-03-19T08:18:14.709Z,98571.00
2019-03-19T08:20:44.099Z,98578.00
2019-03-19T08:23:13.489Z,98573.00
2019-03-19T08:25:42.879Z,98579.00
2019-03-19T08:28:12.274Z,98580.00
2019-03-19T08:30:41.644Z,98582.00
2019-03-19T08:33:11.005Z,98564.00
2019-03-19T08:35:40.950Z,98589.00
2019-03-19T08:38:10.326Z,98599.00
2019-03-19T08:40:39.691Z,98599.00
2019-03-19T08:43:09.081Z,98583.00
2019-03-19T08:45:38.468Z,98610.00
2019-03-19T08:48:07.842Z,98592.00
2019-03-19T08:50:37.253Z,98595.00
2019-03-19T08:53:06.669Z,98611.00
2019-03-19T08:55:36.047Z,98594.00
2019-03-19T08:58:05.745Z,98601.00
2019-03-19T09:00:35.100Z,98598.00
2019-03-19T09:03:04.549Z,98616.00
2019-03-19T09:05:33.948Z,98618.00
2019-03-19T09:08:03.300Z,98604.00
2019-03-19T09:10:32.665Z,98610.00
2019-03-19T09:13:02.048Z,98618.00
2019-03-19T09:15:31.403Z,98631.00
2019-03-19T09:18:00.766Z,98629.00
2019-03-19T09:20:30.594Z,98621.00
2019-03-19T09:23:00.262Z,98619.00
2019-03-19T09:25:29.629Z,98622.00
2019-03-19T09:27:59.006Z,98635.00
2019-03-19T09:30:28.629Z,98635.00
2019-03-19T09:32:58.004Z,98633.00
2019-03-19T09:35:27.389Z,98624.00
2019-03-19T09:37:58.759Z,98644.00
2019-03-19T09:40:27.904Z,98630.00
2019-03-19T09:42:57.826Z,98626.00
2019-03-19T09:45:27.185Z,98637.00
2019-03-19T09:47:56.569Z,98641.00
2019-03-19T09:50:28.806Z,98644.00
2019-03-19T09:52:58.177Z,98644.00
2019-03-19T09:55:27.541Z,98655.00
2019-03-19T09:57:56.940Z,98643.00
2019-03-19T10:00:26.310Z,98642.00
2019-03-19T10:02:58.920Z,98651.00
2019-03-19T10:05:28.967Z,98645.00
2019-03-19T10:07:58.337Z,98643.00
2019-03-19T10:10:27.998Z,98652.00
2019-03-19T10:12:57.347Z,98654.00
2019-03-19T10:15:29.372Z,98654.00
2019-03-19T10:17:58.757Z,98643.00
2019-03-19T10:20:28.155Z,98654.00
2019-03-19T10:22:57.513Z,98652.00
2019-03-19T10:25:26.889Z,98656.00
2019-03-19T10:27:56.732Z,98649.00
2019-03-19T10:30:26.269Z,98646.00
2019-03-19T10:32:56.089Z,98631.00
2019-03-19T10:35:25.483Z,98661.00
2019-03-19T10:37:54.865Z,98642.00
2019-03-19T10:40:27.010Z,98642.00
2019-03-19T10:42:56.415Z,98633.00
2019-03-19T10:45:25.960Z,98650.00
2019-03-19T10:47:55.358Z,98643.00
2019-03-19T10:50:29.040Z,98651.00
2019-03-19T10:52:58.415Z,98665.00
2019-03-19T10:55:27.863Z,98657.00
2019-03-19T10:57:57.299Z,98660.00
2019-03-19T11:00:27.531Z,98663.00
2019-03-19T11:02:56.990Z,98674.00
2019-03-19T11:05:29.082Z,98662.00
2019-03-19T11:07:58.439Z,98668.00
2019-03-19T11:10:27.799Z,98660.00
2019-03-19T11:12:57.618Z,98659.00
2019-03-19T11:15:31.593Z,98669.00
2019-03-19T11:18:01.294Z,98683.00
2019-03-19T11:20:30.660Z,98682.00
2019-03-19T11:23:00.025Z,98679.00
2019-03-19T11:25:30.619Z,98679.00
2019-03-19T11:28:00.420Z,98678.00
2019-03-19T11:30:31.041Z,98658.00
2019-03-19T11:33:00.461Z,98666.00
2019-03-19T11:35:31.111Z,98666.00
2019-03-19T11:38:00.558Z,98670.00
2019-03-19T11:40:29.933Z,98668.00
2019-03-19T11:42:59.323Z,98673.00
2019-03-19T11:45:28.690Z,98666.00
2019-03-19T11:47:58.142Z,98661.00
2019-03-19T11:50:33.195Z,98673.00
2019-03-19T11:53:01.646Z,98665.00
2019-03-19T11:55:31.027Z,98674.00
2019-03-19T11:58:00.416Z,98663.00
2019-03-19T12:00:46.857Z,98674.00
2019-03-19T12:03:16.757Z,98669.00
2019-03-19T12:05:46.207Z,98664.00
2019-03-19T12:08:15.574Z,98656.00
2019-03-19T12:10:44.997Z,98674.00
2019-03-19T12:13:14.457Z,98664.00
2019-03-19T12:15:43.836Z,98669.00
2019-03-19T12:18:13.290Z,98657.00
2019-03-19T12:20:42.663Z,98671.00
2019-03-19T12:23:12.025Z,98657.00
2019-03-19T12:25:41.426Z,98674.00
2019-03-19T12:28:10.959Z,98664.00
2019-03-19T12:30:40.438Z,98669.00
2019-03-19T12:33:10.687Z,98660.00
2019-03-19T12:35:40.076Z,98665.00
2019-03-19T12:38:10.271Z,98636.00
2019-03-19T12:40:39.646Z,98633.00
2019-03-19T12:43:09.083Z,98646.00
2019-03-19T12:45:38.459Z,98634.00
2019-03-19T12:48:07.847Z,98637.00
2019-03-19T12:50:37.229Z,98630.00
2019-03-19T12:53:06.596Z,98629.00
2019-03-19T12:55:36.450Z,98633.00
2019-03-19T12:58:06.148Z,98637.00
2019-03-19T13:00:35.591Z,98619.00
2019-03-19T13:03:05.695Z,98620.00
2019-03-19T13:05:35.070Z,98620.00
2019-03-19T13:08:04.494Z,98616.00
2019-03-19T13:10:33.883Z,98626.00
2019-03-19T13:13:03.260Z,98634.00
2019-03-19T13:15:32.642Z,98637.00
2019-03-19T13:18:02.442Z,98641.00
2019-03-19T13:20:31.797Z,98650.00
2019-03-19T13:23:01.175Z,98635.00
2019-03-19T13:25:30.592Z,98635.00
2019-03-19T13:28:00.243Z,98633.00
2019-03-19T13:30:44.186Z,98635.00
2019-03-19T13:33:04.992Z,98626.00
2019-03-19T13:35:34.357Z,98631.00
2019-03-19T13:38:03.726Z,98641.00
2019-03-19T13:40:34.211Z,98630.00
2019-03-19T13:43:03.877Z,98630.00
2019-03-19T13:45:33.247Z,98630.00
2019-03-19T13:48:03.303Z,98635.00
2019-03-19T13:50:32.681Z,98638.00
2019-03-19T13:53:02.039Z,98638.00
2019-03-19T13:55:31.798Z,98635.00
2019-03-19T13:58:01.178Z,98637.00
2019-03-19T14:00:30.545Z,98640.00
2019-03-19T14:02:59.935Z,98642.00
2019-03-19T14:05:29.382Z,98644.00
2019-03-19T14:07:58.749Z,98649.00
2019-03-19T14:10:28.178Z,98644.00
2019-03-19T14:12:57.572Z,98647.00
2019-03-19T14:15:28.166Z,98647.00
2019-03-19T14:17:57.999Z,98651.00
2019-03-19T14:20:27.387Z,98655.00
2019-03-19T14:22:56.738Z,98650.00
2019-03-19T14:25:26.147Z,98661.00
2019-03-19T14:27:55.531Z,98643.00
2019-03-19T14:30:27.696Z,98662.00
2019-03-19T14:32:57.098Z,98647.00
2019-03-19T14:35:36.606Z,98658.00
2019-03-19T14:37:57.628Z,98669.00
2019-03-19T14:40:28.380Z,98659.00
2019-03-19T14:43:01.371Z,98666.00
2019-03-19T14:45:30.017Z,98656.00
2019-03-19T14:47:59.384Z,98662.00
2019-03-19T14:50:28.744Z,98675.00
2019-03-19T14:52:58.133Z,98663.00
2019-03-19T14:55:29.149Z,98666.00
2019-03-19T14:57:58.510Z,98667.00
2019-03-19T15:00:27.887Z,98677.00
2019-03-19T15:02:57.266Z,98680.00
2019-03-19T15:05:26.666Z,98672.00
2019-03-19T15:07:56.038Z,98676.00
2019-03-19T15:10:25.597Z,98687.00
2019-03-19T15:12:54.980Z,98678.00
2019-03-19T15:15:27.311Z,98670.00
2019-03-19T15:17:57.098Z,98684.00
2019-03-19T15:20:28.064Z,98689.00
2019-03-19T15:22:57.445Z,98678.00
2019-03-19T15:25:26.828Z,98687.00
2019-03-19T15:27:56.197Z,98670.00
2019-03-19T15:30:25.569Z,98687.00
2019-03-19T15:32:55.026Z,98680.00
2019-03-19T15:35:24.501Z,98680.00
2019-03-19T15:37:53.882Z,98681.00
2019-03-19T15:40:23.304Z,98679.00
2019-03-19T15:42:52.692Z,98676.00
2019-03-19T15:45:30.990Z,98678.00
2019-03-19T15:48:00.373Z,98675.00
2019-03-19T15:50:29.726Z,98680.00
2019-03-19T15:52:59.126Z,98680.00
2019-03-19T15:55:28.543Z,98666.00
2019-03-19T15:57:57.868Z,98688.00
2019-03-19T16:00:27.675Z,98679.00
2019-03-19T16:02:57.049Z,98676.00
2019-03-19T16:05:26.431Z,98676.00
2019-03-19T16:07:55.817Z,98683.00
2019-03-19T16:10:25.185Z,98679.00
2019-03-19T16:12:54.627Z,98686.00
2019-03-19T16:15:24.296Z,98674.00
2019-03-19T16:17:53.656Z,98696.00
2019-03-19T16:20:23.869Z,98693.00
2019-03-19T16:22:53.268Z,98698.00
2019-03-19T16:25:22.637Z,98702.00
2019-03-19T16:27:51.992Z,98710.00
2019-03-19T16:30:21.833Z,98707.00
2019-03-19T16:32:51.200Z,98714.00
2019-03-19T16:35:22.443Z,98715.00
2019-03-19T16:37:51.838Z,98723.00
2019-03-19T16:40:22.602Z,98710.00
2019-03-19T16:42:54.887Z,98715.00
2019-03-19T16:45:24.977Z,98706.00
2019-03-19T16:47:54.695Z,98721.00
2019-03-19T16:50:24.700Z,98711.00
2019-03-19T16:52:54.137Z,98721.00
2019-03-19T16:55:26.819Z,98729.00
2019-03-19T16:57:56.180Z,98726.00
2019-03-19T17:00:31.348Z,98740.00
2019-03-19T17:03:00.712Z,98739.00
2019-03-19T17:05:30.075Z,98736.00
2019-03-19T17:07:59.463Z,98747.00
2019-03-19T17:10:31.911Z,98739.00
2019-03-19T17:13:01.303Z,98745.00
2019-03-19T17:15:30.701Z,98745.00
2019-03-19T17:18:00.066Z,98742.00
2019-03-19T17:20:29.435Z,98747.00
2019-03-19T17:22:58.842Z,98751.00
2019-03-19T17:25:28.486Z,98758.00
2019-03-19T17:27:57.874Z,98757.00
2019-03-19T17:30:31.836Z,98761.00
2019-03-19T17:33:01.214Z,98762.00
2019-03-19T17:35:30.579Z,98759.00
2019-03-19T17:38:00.779Z,98760.00
2019-03-19T17:40:40.535Z,98771.00
2019-03-19T17:43:01.253Z,98773.00
2019-03-19T17:45:30.652Z,98781.00
2019-03-19T17:48:00.021Z,98770.00
2019-03-19T17:50:34.863Z,98775.00
2019-03-19T17:53:04.425Z,98774.00
2019-03-19T17:55:33.788Z,98792.00
2019-03-19T17:58:03.172Z,98786.00
2019-03-19T18:00:49.207Z,98783.00
2019-03-19T18:03:18.562Z,98802.00
2019-03-19T18:05:47.950Z,98796.00
2019-03-19T18:08:19.577Z,98813.00
2019-03-19T18:10:48.934Z,98799.00
2019-03-19T18:13:18.282Z,98806.00
2019-03-19T18:15:47.714Z,98803.00
2019-03-19T18:18:17.085Z,98798.00
2019-03-19T18:20:46.451Z,98805.00
2019-03-19T18:23:15.823Z,98822.00
2019-03-19T18:25:45.182Z,98812.00
2019-03-19T18:28:14.542Z,98806.00
2019-03-19T18:30:43.955Z,98818.00
2019-03-19T18:33:13.324Z,98825.00
2019-03-19T18:35:42.699Z,98828.00
2019-03-19T18:38:12.070Z,98813.00
2019-03-19T18:40:41.434Z,98828.00
2019-03-19T18:43:10.795Z,98819.00
2019-03-19T18:45:40.210Z,98831.00
2019-03-19T18:48:09.586Z,98835.00
2019-03-19T18:50:38.939Z,98822.00
2019-03-19T18:53:09.748Z,98836.00
2019-03-19T18:55:39.108Z,98836.00
2019-03-19T18:58:08.466Z,98841.00
2019-03-19T19:00:37.873Z,98842.00
2019-03-19T19:03:07.277Z,98841.00
2019-03-19T19:05:36.593Z,98850.00
2019-03-19T19:08:06.043Z,98842.00
2019-03-19T19:10:35.405Z,98857.00
2019-03-19T19:13:05.036Z,98843.00
2019-03-19T19:15:35.196Z,98846.00
2019-03-19T19:18:04.628Z,98843.00
2019-03-19T19:20:33.990Z,98846.00
2019-03-19T19:23:03.365Z,98832.00
2019-03-19T19:25:32.725Z,98856.00
2019-03-19T19:28:02.087Z,98846.00
2019-03-19T19:30:32.847Z,98857.00
2019-03-19T19:33:02.785Z,98861.00
2019-03-19T19:35:32.353Z,98867.00
2019-03-19T19:38:03.612Z,98881.00
2019-03-19T19:40:33.121Z,98888.00
2019-03-19T19:43:02.479Z,98886.00
2019-03-19T19:45:31.871Z,98876.00
2019-03-19T19:48:01.238Z,98889.00
2019-03-19T19:50:30.595Z,98906.00
2019-03-19T19:52:59.998Z,98891.00
2019-03-19T19:55:30.758Z,98895.00
2019-03-19T19:58:00.117Z,98901.00
2019-03-19T20:00:30.339Z,98907.00
2019-03-19T20:02:59.699Z,98912.00
2019-03-19T20:05:29.054Z,98918.00
2019-03-19T20:07:58.418Z,98909.00
2019-03-19T20:10:28.446Z,98912.00
2019-03-19T20:12:57.806Z,98923.00
2019-03-19T20:15:27.183Z,98918.00
2019-03-19T20:17:56.544Z,98915.00
2019-03-19T20:20:28.624Z,98925.00
2019-03-19T20:22:58.701Z,98925.00
2019-03-19T20:25:28.003Z,98940.00
2019-03-19T20:27:57.362Z,98943.00
2019-03-19T20:30:30.361Z,98933.00
2019-03-19T20:32:59.723Z,98937.00
2019-03-19T20:35:29.091Z,98952.00
2019-03-19T20:37:58.478Z,98934.00
2019-03-19T20:40:27.858Z,98945.00
2019-03-19T20:42:57.225Z,98939.00
2019-03-19T20:45:28.833Z,98942.00
2019-03-19T20:47:58.203Z,98951.00
2019-03-19T20:50:39.600Z,98954.00
2019-03-19T20:53:08.951Z,98949.00
2019-03-19T20:55:38.308Z,98967.00
2019-03-19T20:58:08.096Z,98974.00
2019-03-19T21:00:37.457Z,98971.00
2019-03-19T21:03:06.820Z,98967.00
2019-03-19T21:05:36.276Z,98977.00
2019-03-19T21:08:06.201Z,98975.00
2019-03-19T21:10:35.563Z,98972.00
2019-03-19T21:13:05.002Z,98982.00
2019-03-19T21:15:34.376Z,98993.00
2019-03-19T21:18:03.794Z,98986.00
2019-03-19T21:20:33.163Z,98981.00
2019-03-19T21:23:03.076Z,98990.00
2019-03-19T21:25:32.443Z,98990.00
2019-03-19T21:28:01.837Z,98992.00
2019-03-19T21:30:31.217Z,98994.00
2019-03-19T21:33:00.565Z,98992.00
2019-03-19T21:35:30.243Z,99004.00
2019-03-19T21:37:59.599Z,99010.00
2019-03-19T21:40:29.019Z,99002.00
2019-03-19T21:42:58.403Z,99005.00
2019-03-19T21:45:27.774Z,99013.00
2019-03-19T21:47:57.136Z,99016.00
2019-03-19T21:50:27.529Z,99019.00
2019-03-19T21:52:56.883Z,99017.00
2019-03-19T21:55:26.232Z,99016.00
2019-03-19T21:57:55.606Z,99001.00
2019-03-19T22:00:28.653Z,99003.00
2019-03-19T22:02:58.025Z,99016.00
2019-03-19T22:05:27.405Z,99016.00
2019-03-19T22:07:56.760Z,99015.00
2019-03-19T22:10:26.283Z,99022.00
2019-03-19T22:12:55.700Z,99017.00
2019-03-19T22:15:26.193Z,99024.00
2019-03-19T22:17:55.612Z,99024.00
2019-03-19T22:20:26.550Z,99035.00
2019-03-19T22:22:56.221Z,99036.00
2019-03-19T22:25:25.582Z,99032.00
2019-03-19T22:27:54.966Z,99033.00
2019-03-19T22:30:24.428Z,99034.00
2019-03-19T22:32:56.415Z,99025.00
2019-03-19T22:35:26.476Z,99026.00
2019-03-19T22:37:55.833Z,99044.00
2019-03-19T22:40:25.191Z,99019.00
2019-03-19T22:42:54.557Z,99027.00
2019-03-19T22:45:26.634Z,99019.00
2019-03-19T22:47:55.988Z,99032.00
2019-03-19T22:50:25.369Z,99025.00
2019-03-19T22:52:54.734Z,99025.00
2019-03-19T22:55:28.906Z,99020.00
2019-03-19T22:57:55.237Z,99027.00
2019-03-19T23:00:33.548Z,99039.00
2019-03-19T23:03:04.421Z,99021.00
2019-03-19T23:05:33.912Z,99037.00
2019-03-19T23:08:03.318Z,99037.00
2019-03-19T23:10:33.055Z,99023.00
2019-03-19T23:13:02.479Z,99032.00
2019-03-19T23:15:31.898Z,99035.00
2019-03-19T23:18:01.634Z,99033.00
2019-03-19T23:20:31.044Z,99044.00
2019-03-19T23:23:00.413Z,99037.00
2019-03-19T23:25:29.818Z,99038.00
2019-03-19T23:27:59.234Z,99030.00
2019-03-19T23:30:28.585Z,99042.00
2019-03-19T23:32:57.973Z,99044.00
2019-03-19T23:35:27.340Z,99041.00
2019-03-19T23:37:56.685Z,99040.00
2019-03-19T23:40:26.439Z,99035.00
2019-03-19T23:42:55.807Z,99025.00
2019-03-19T23:45:25.168Z,99037.00
2019-03-19T23:47:57.285Z,99042.00
2019-03-19T23:50:26.661Z,99052.00
2019-03-19T23:52:56.027Z,99050.00
2019-03-19T23:55:25.401Z,99052.00
2019-03-19T23:57:54.754Z,99052.00
